Walker, South Dakota
Current Conditions -  °F | °C
As of 7:52 PM on Tuesday 21 Oct 2014 (Local Time) from KMBG Reporting Station
Clear Clear  
Wind Chill: 69°   Ceiling: Unl
Heat Index: 69°   Visibility: 10mi
Dew Point: 40°   Wind: 17mph
Humidity: 35%   Direction: 140°SE
Pressure: 29.71"   Gusts: NA
Location:  45.91°N, 101.09°W
Report Text: KMBG 220152Z AUTO 14015KT 10SM CLR 21/04 A2971 RMK AO2 SLP057 T02060044 $
Loading
Personal Weather Stations






























Interactive Weather Map
Tropical Storm Tracking
New forecast layout! Learn more

10-Day Weather Forecast

Advertisements
Track Severe Weather on mobile